sensor_id;sensor_type;location;lat;lon;timestamp;temperature;humidity
52203;DHT22;38173;52.850;6.970;2023-05-07T00:00:21;12.80;99.90
52203;DHT22;38173;52.850;6.970;2023-05-07T00:02:47;12.80;99.90
52203;DHT22;38173;52.850;6.970;2023-05-07T00:05:12;12.80;99.90
52203;DHT22;38173;52.850;6.970;2023-05-07T00:07:38;12.70;99.90
52203;DHT22;38173;52.850;6.970;2023-05-07T00:10:04;12.70;99.90
52203;DHT22;38173;52.850;6.970;2023-05-07T00:12:31;12.70;99.90
52203;DHT22;38173;52.850;6.970;2023-05-07T00:15:01;12.60;99.90
52203;DHT22;38173;52.850;6.970;2023-05-07T00:17:26;12.60;99.90
52203;DHT22;38173;52.850;6.970;2023-05-07T00:19:52;12.60;99.90
52203;DHT22;38173;52.850;6.970;2023-05-07T00:22:18;12.60;99.90
52203;DHT22;38173;52.850;6.970;2023-05-07T00:24:43;12.50;99.90
52203;DHT22;38173;52.850;6.970;2023-05-07T00:27:09;12.50;99.90
52203;DHT22;38173;52.850;6.970;2023-05-07T00:29:34;12.50;99.90
52203;DHT22;38173;52.850;6.970;2023-05-07T00:32:01;12.40;99.90
52203;DHT22;38173;52.850;6.970;2023-05-07T00:34:26;12.40;99.90
52203;DHT22;38173;52.850;6.970;2023-05-07T00:36:52;12.40;99.90
52203;DHT22;38173;52.850;6.970;2023-05-07T00:39:17;12.40;99.90
52203;DHT22;38173;52.850;6.970;2023-05-07T00:41:43;12.30;99.90
52203;DHT22;38173;52.850;6.970;2023-05-07T00:44:09;12.30;99.90
52203;DHT22;38173;52.850;6.970;2023-05-07T00:46:34;12.30;99.90
52203;DHT22;38173;52.850;6.970;2023-05-07T00:49:00;12.20;99.90
52203;DHT22;38173;52.850;6.970;2023-05-07T00:51:26;12.20;99.90
52203;DHT22;38173;52.850;6.970;2023-05-07T00:53:53;12.10;99.90
52203;DHT22;38173;52.850;6.970;2023-05-07T00:56:19;12.10;99.90
52203;DHT22;38173;52.850;6.970;2023-05-07T00:58:45;12.20;99.90
52203;DHT22;38173;52.850;6.970;2023-05-07T01:01:11;12.00;99.90
52203;DHT22;38173;52.850;6.970;2023-05-07T01:03:37;12.10;99.90
52203;DHT22;38173;52.850;6.970;2023-05-07T01:06:02;12.00;99.90
52203;DHT22;38173;52.850;6.970;2023-05-07T01:08:28;11.90;99.90
52203;DHT22;38173;52.850;6.970;2023-05-07T01:10:55;11.90;99.90
52203;DHT22;38173;52.850;6.970;2023-05-07T01:13:21;11.90;99.90
52203;DHT22;38173;52.850;6.970;2023-05-07T01:15:47;11.90;99.90
52203;DHT22;38173;52.850;6.970;2023-05-07T01:18:13;11.80;99.90
52203;DHT22;38173;52.850;6.970;2023-05-07T01:20:39;11.80;99.90
52203;DHT22;38173;52.850;6.970;2023-05-07T01:23:05;11.70;99.90
52203;DHT22;38173;52.850;6.970;2023-05-07T01:25:32;11.70;99.90
52203;DHT22;38173;52.850;6.970;2023-05-07T01:27:58;11.70;99.90
52203;DHT22;38173;52.850;6.970;2023-05-07T01:30:25;11.60;99.90
52203;DHT22;38173;52.850;6.970;2023-05-07T01:32:59;11.60;99.90
52203;DHT22;38173;52.850;6.970;2023-05-07T01:35:27;11.60;99.90
52203;DHT22;38173;52.850;6.970;2023-05-07T01:37:54;11.50;99.90
52203;DHT22;38173;52.850;6.970;2023-05-07T01:40:20;11.50;99.90
52203;DHT22;38173;52.850;6.970;2023-05-07T01:42:45;11.40;99.90
52203;DHT22;38173;52.850;6.970;2023-05-07T01:45:11;11.50;99.90
52203;DHT22;38173;52.850;6.970;2023-05-07T01:47:37;11.40;99.90
52203;DHT22;38173;52.850;6.970;2023-05-07T01:50:03;11.40;99.90
52203;DHT22;38173;52.850;6.970;2023-05-07T01:52:30;11.30;99.90
52203;DHT22;38173;52.850;6.970;2023-05-07T01:54:56;11.30;99.90
52203;DHT22;38173;52.850;6.970;2023-05-07T01:57:22;11.30;99.90
52203;DHT22;38173;52.850;6.970;2023-05-07T01:59:47;11.20;99.90
52203;DHT22;38173;52.850;6.970;2023-05-07T02:02:13;11.20;99.90
52203;DHT22;38173;52.850;6.970;2023-05-07T02:04:38;11.20;99.90
52203;DHT22;38173;52.850;6.970;2023-05-07T02:07:04;11.20;99.90
52203;DHT22;38173;52.850;6.970;2023-05-07T02:09:29;11.20;99.90
52203;DHT22;38173;52.850;6.970;2023-05-07T02:11:55;11.20;99.90
52203;DHT22;38173;52.850;6.970;2023-05-07T02:14:21;11.10;99.90
52203;DHT22;38173;52.850;6.970;2023-05-07T02:16:46;11.10;99.90
52203;DHT22;38173;52.850;6.970;2023-05-07T02:19:12;11.10;99.90
52203;DHT22;38173;52.850;6.970;2023-05-07T02:21:38;11.10;99.90
52203;DHT22;38173;52.850;6.970;2023-05-07T02:24:03;11.10;99.90
52203;DHT22;38173;52.850;6.970;2023-05-07T02:26:29;11.10;99.90
52203;DHT22;38173;52.850;6.970;2023-05-07T02:28:55;11.00;99.90
52203;DHT22;38173;52.850;6.970;2023-05-07T02:31:20;11.00;99.90
52203;DHT22;38173;52.850;6.970;2023-05-07T02:33:46;11.00;99.90
52203;DHT22;38173;52.850;6.970;2023-05-07T02:36:12;11.00;99.90
52203;DHT22;38173;52.850;6.970;2023-05-07T02:38:37;10.90;99.90
52203;DHT22;38173;52.850;6.970;2023-05-07T02:41:03;10.90;99.90
52203;DHT22;38173;52.850;6.970;2023-05-07T02:43:29;10.90;99.90
52203;DHT22;38173;52.850;6.970;2023-05-07T02:46:04;10.90;99.90
52203;DHT22;38173;52.850;6.970;2023-05-07T02:48:30;10.90;99.90
52203;DHT22;38173;52.850;6.970;2023-05-07T02:50:55;10.90;99.90
52203;DHT22;38173;52.850;6.970;2023-05-07T02:53:21;10.90;99.90
52203;DHT22;38173;52.850;6.970;2023-05-07T02:55:47;10.90;99.90
52203;DHT22;38173;52.850;6.970;2023-05-07T02:58:12;10.90;99.90
52203;DHT22;38173;52.850;6.970;2023-05-07T03:00:38;10.90;99.90
52203;DHT22;38173;52.850;6.970;2023-05-07T03:03:04;10.90;99.90
52203;DHT22;38173;52.850;6.970;2023-05-07T03:05:29;10.90;99.90
52203;DHT22;38173;52.850;6.970;2023-05-07T03:07:55;10.80;99.90
52203;DHT22;38173;52.850;6.970;2023-05-07T03:10:21;10.80;99.90
52203;DHT22;38173;52.850;6.970;2023-05-07T03:12:46;10.80;99.90
52203;DHT22;38173;52.850;6.970;2023-05-07T03:15:12;10.80;99.90
52203;DHT22;38173;52.850;6.970;2023-05-07T03:17:38;10.80;99.90
52203;DHT22;38173;52.850;6.970;2023-05-07T03:20:04;10.80;99.90
52203;DHT22;38173;52.850;6.970;2023-05-07T03:22:29;10.80;99.90
52203;DHT22;38173;52.850;6.970;2023-05-07T03:24:55;10.80;99.90
52203;DHT22;38173;52.850;6.970;2023-05-07T03:27:21;10.70;99.90
52203;DHT22;38173;52.850;6.970;2023-05-07T03:29:46;10.80;99.90
52203;DHT22;38173;52.850;6.970;2023-05-07T03:32:12;10.70;99.90
52203;DHT22;38173;52.850;6.970;2023-05-07T03:34:38;10.70;99.90
52203;DHT22;38173;52.850;6.970;2023-05-07T03:37:03;10.70;99.90
52203;DHT22;38173;52.850;6.970;2023-05-07T03:39:29;10.70;99.90
52203;DHT22;38173;52.850;6.970;2023-05-07T03:41:55;10.70;99.90
52203;DHT22;38173;52.850;6.970;2023-05-07T03:44:21;10.70;99.90
52203;DHT22;38173;52.850;6.970;2023-05-07T03:46:46;10.70;99.90
52203;DHT22;38173;52.850;6.970;2023-05-07T03:49:12;10.70;99.90
52203;DHT22;38173;52.850;6.970;2023-05-07T03:51:37;10.70;99.90
52203;DHT22;38173;52.850;6.970;2023-05-07T03:54:03;10.70;99.90
52203;DHT22;38173;52.850;6.970;2023-05-07T03:56:29;10.60;99.90
52203;DHT22;38173;52.850;6.970;2023-05-07T03:58:54;10.60;99.90
52203;DHT22;38173;52.850;6.970;2023-05-07T04:01:20;10.60;99.90
52203;DHT22;38173;52.850;6.970;2023-05-07T04:03:46;10.60;99.90
52203;DHT22;38173;52.850;6.970;2023-05-07T04:06:11;10.60;99.90
52203;DHT22;38173;52.850;6.970;2023-05-07T04:08:37;10.60;99.90
52203;DHT22;38173;52.850;6.970;2023-05-07T04:11:03;10.60;99.90
52203;DHT22;38173;52.850;6.970;2023-05-07T04:13:29;10.60;99.90
52203;DHT22;38173;52.850;6.970;2023-05-07T04:15:55;10.60;99.90
52203;DHT22;38173;52.850;6.970;2023-05-07T04:18:21;10.60;99.90
52203;DHT22;38173;52.850;6.970;2023-05-07T04:20:47;10.60;99.90
52203;DHT22;38173;52.850;6.970;2023-05-07T04:23:13;10.60;99.90
52203;DHT22;38173;52.850;6.970;2023-05-07T04:25:41;10.60;99.90
52203;DHT22;38173;52.850;6.970;2023-05-07T04:28:07;10.60;99.90
52203;DHT22;38173;52.850;6.970;2023-05-07T04:30:33;10.60;99.90
52203;DHT22;38173;52.850;6.970;2023-05-07T04:32:58;10.60;99.90
52203;DHT22;38173;52.850;6.970;2023-05-07T04:35:24;10.60;99.90
52203;DHT22;38173;52.850;6.970;2023-05-07T04:37:50;10.60;99.90
52203;DHT22;38173;52.850;6.970;2023-05-07T04:40:16;10.60;99.90
52203;DHT22;38173;52.850;6.970;2023-05-07T04:42:41;10.60;99.90
52203;DHT22;38173;52.850;6.970;2023-05-07T04:45:07;10.60;99.90
52203;DHT22;38173;52.850;6.970;2023-05-07T04:47:34;10.60;99.90
52203;DHT22;38173;52.850;6.970;2023-05-07T04:49:59;10.60;99.90
52203;DHT22;38173;52.850;6.970;2023-05-07T04:52:25;10.60;99.90
52203;DHT22;38173;52.850;6.970;2023-05-07T04:54:51;10.60;99.90
52203;DHT22;38173;52.850;6.970;2023-05-07T04:57:16;10.70;99.90
52203;DHT22;38173;52.850;6.970;2023-05-07T04:59:43;10.70;99.90
52203;DHT22;38173;52.850;6.970;2023-05-07T05:02:09;10.70;99.90
52203;DHT22;38173;52.850;6.970;2023-05-07T05:04:35;10.70;99.90
52203;DHT22;38173;52.850;6.970;2023-05-07T05:07:00;10.80;99.90
52203;DHT22;38173;52.850;6.970;2023-05-07T05:09:26;10.70;99.90
52203;DHT22;38173;52.850;6.970;2023-05-07T05:11:52;10.80;99.90
52203;DHT22;38173;52.850;6.970;2023-05-07T05:14:20;10.80;99.90
52203;DHT22;38173;52.850;6.970;2023-05-07T05:16:46;10.80;99.90
52203;DHT22;38173;52.850;6.970;2023-05-07T05:19:11;10.80;99.90
52203;DHT22;38173;52.850;6.970;2023-05-07T05:21:37;10.80;99.90
52203;DHT22;38173;52.850;6.970;2023-05-07T05:24:02;10.80;99.90
52203;DHT22;38173;52.850;6.970;2023-05-07T05:26:29;10.80;99.90
52203;DHT22;38173;52.850;6.970;2023-05-07T05:28:55;10.90;99.90
52203;DHT22;38173;52.850;6.970;2023-05-07T05:31:20;11.00;99.90
52203;DHT22;38173;52.850;6.970;2023-05-07T05:33:46;11.00;99.90
52203;DHT22;38173;52.850;6.970;2023-05-07T05:36:12;11.10;99.90
52203;DHT22;38173;52.850;6.970;2023-05-07T05:38:38;11.20;99.90
52203;DHT22;38173;52.850;6.970;2023-05-07T05:41:05;11.20;99.90
52203;DHT22;38173;52.850;6.970;2023-05-07T05:43:31;11.30;99.90
52203;DHT22;38173;52.850;6.970;2023-05-07T05:45:56;11.30;99.90
52203;DHT22;38173;52.850;6.970;2023-05-07T05:48:22;11.30;99.90
52203;DHT22;38173;52.850;6.970;2023-05-07T05:50:48;11.30;99.90
52203;DHT22;38173;52.850;6.970;2023-05-07T05:53:14;11.30;99.90
52203;DHT22;38173;52.850;6.970;2023-05-07T05:55:39;11.40;99.90
52203;DHT22;38173;52.850;6.970;2023-05-07T05:58:05;11.40;99.90
52203;DHT22;38173;52.850;6.970;2023-05-07T06:00:31;11.40;99.90
52203;DHT22;38173;52.850;6.970;2023-05-07T06:02:57;11.40;99.90
52203;DHT22;38173;52.850;6.970;2023-05-07T06:05:23;11.50;99.90
52203;DHT22;38173;52.850;6.970;2023-05-07T06:07:49;11.50;99.90
52203;DHT22;38173;52.850;6.970;2023-05-07T06:10:14;11.60;99.90
52203;DHT22;38173;52.850;6.970;2023-05-07T06:12:40;11.60;99.90
52203;DHT22;38173;52.850;6.970;2023-05-07T06:15:06;11.60;99.90
52203;DHT22;38173;52.850;6.970;2023-05-07T06:17:31;11.70;99.90
52203;DHT22;38173;52.850;6.970;2023-05-07T06:19:57;11.70;99.90
52203;DHT22;38173;52.850;6.970;2023-05-07T06:22:23;11.80;99.90
52203;DHT22;38173;52.850;6.970;2023-05-07T06:24:48;11.80;99.90
52203;DHT22;38173;52.850;6.970;2023-05-07T06:27:14;11.90;99.90
52203;DHT22;38173;52.850;6.970;2023-05-07T06:29:40;11.90;99.90
52203;DHT22;38173;52.850;6.970;2023-05-07T06:32:09;11.90;99.90
52203;DHT22;38173;52.850;6.970;2023-05-07T06:34:35;12.00;99.90
52203;DHT22;38173;52.850;6.970;2023-05-07T06:37:00;12.00;99.90
52203;DHT22;38173;52.850;6.970;2023-05-07T06:39:26;12.00;99.90
52203;DHT22;38173;52.850;6.970;2023-05-07T06:41:52;11.90;99.90
52203;DHT22;38173;52.850;6.970;2023-05-07T06:44:17;11.90;99.90
52203;DHT22;38173;52.850;6.970;2023-05-07T06:46:43;11.90;99.90
52203;DHT22;38173;52.850;6.970;2023-05-07T06:49:09;11.90;99.90
52203;DHT22;38173;52.850;6.970;2023-05-07T06:51:34;11.80;99.90
52203;DHT22;38173;52.850;6.970;2023-05-07T06:54:00;11.90;99.90
52203;DHT22;38173;52.850;6.970;2023-05-07T06:56:26;11.90;99.90
52203;DHT22;38173;52.850;6.970;2023-05-07T06:58:51;11.90;99.90
52203;DHT22;38173;52.850;6.970;2023-05-07T07:01:17;11.90;99.90
52203;DHT22;38173;52.850;6.970;2023-05-07T07:03:43;12.00;99.90
52203;DHT22;38173;52.850;6.970;2023-05-07T07:06:09;12.00;99.90
52203;DHT22;38173;52.850;6.970;2023-05-07T07:08:34;12.10;99.90
52203;DHT22;38173;52.850;6.970;2023-05-07T07:11:00;12.10;99.90
52203;DHT22;38173;52.850;6.970;2023-05-07T07:13:25;12.20;99.90
52203;DHT22;38173;52.850;6.970;2023-05-07T07:15:51;12.20;99.90
52203;DHT22;38173;52.850;6.970;2023-05-07T07:18:18;12.30;99.90
52203;DHT22;38173;52.850;6.970;2023-05-07T07:20:44;12.30;99.90
52203;DHT22;38173;52.850;6.970;2023-05-07T07:23:09;12.40;99.90
52203;DHT22;38173;52.850;6.970;2023-05-07T07:25:35;12.40;99.90
52203;DHT22;38173;52.850;6.970;2023-05-07T07:28:01;12.40;99.90
52203;DHT22;38173;52.850;6.970;2023-05-07T07:30:27;12.40;99.90
52203;DHT22;38173;52.850;6.970;2023-05-07T07:32:53;12.40;99.90
52203;DHT22;38173;52.850;6.970;2023-05-07T07:35:18;12.40;99.90
52203;DHT22;38173;52.850;6.970;2023-05-07T07:37:44;12.40;99.90
52203;DHT22;38173;52.850;6.970;2023-05-07T07:40:09;12.50;99.90
52203;DHT22;38173;52.850;6.970;2023-05-07T07:42:35;12.60;99.90
52203;DHT22;38173;52.850;6.970;2023-05-07T07:45:01;12.70;99.90
52203;DHT22;38173;52.850;6.970;2023-05-07T07:47:28;12.80;99.90
52203;DHT22;38173;52.850;6.970;2023-05-07T07:49:53;12.90;99.90
52203;DHT22;38173;52.850;6.970;2023-05-07T07:52:19;13.10;99.90
52203;DHT22;38173;52.850;6.970;2023-05-07T07:54:45;13.20;99.90
52203;DHT22;38173;52.850;6.970;2023-05-07T07:57:11;13.30;99.90
52203;DHT22;38173;52.850;6.970;2023-05-07T07:59:36;13.40;99.90
52203;DHT22;38173;52.850;6.970;2023-05-07T08:02:02;13.40;99.90
52203;DHT22;38173;52.850;6.970;2023-05-07T08:04:27;13.40;99.90
52203;DHT22;38173;52.850;6.970;2023-05-07T08:06:53;13.40;99.90
52203;DHT22;38173;52.850;6.970;2023-05-07T08:09:21;13.30;99.90
52203;DHT22;38173;52.850;6.970;2023-05-07T08:11:47;13.30;99.90
52203;DHT22;38173;52.850;6.970;2023-05-07T08:14:12;13.30;99.90
52203;DHT22;38173;52.850;6.970;2023-05-07T08:16:38;13.30;99.90
52203;DHT22;38173;52.850;6.970;2023-05-07T08:19:04;13.30;99.90
52203;DHT22;38173;52.850;6.970;2023-05-07T08:21:30;13.30;99.90
52203;DHT22;38173;52.850;6.970;2023-05-07T08:23:56;13.40;99.90
52203;DHT22;38173;52.850;6.970;2023-05-07T08:26:21;13.60;99.90
52203;DHT22;38173;52.850;6.970;2023-05-07T08:28:47;13.70;99.90
52203;DHT22;38173;52.850;6.970;2023-05-07T08:31:13;13.80;99.90
52203;DHT22;38173;52.850;6.970;2023-05-07T08:33:38;13.90;99.90
52203;DHT22;38173;52.850;6.970;2023-05-07T08:36:04;14.00;99.90
52203;DHT22;38173;52.850;6.970;2023-05-07T08:38:30;14.00;99.90
52203;DHT22;38173;52.850;6.970;2023-05-07T08:40:56;14.00;99.90
52203;DHT22;38173;52.850;6.970;2023-05-07T08:43:22;14.00;99.90
52203;DHT22;38173;52.850;6.970;2023-05-07T08:45:49;14.10;99.90
52203;DHT22;38173;52.850;6.970;2023-05-07T08:48:16;14.10;99.90
52203;DHT22;38173;52.850;6.970;2023-05-07T08:50:42;14.20;99.90
52203;DHT22;38173;52.850;6.970;2023-05-07T08:53:08;14.30;99.90
52203;DHT22;38173;52.850;6.970;2023-05-07T08:55:34;14.40;99.90
52203;DHT22;38173;52.850;6.970;2023-05-07T08:58:00;14.50;99.90
52203;DHT22;38173;52.850;6.970;2023-05-07T09:00:26;14.60;99.90
52203;DHT22;38173;52.850;6.970;2023-05-07T09:02:52;14.80;99.90
52203;DHT22;38173;52.850;6.970;2023-05-07T09:05:18;14.90;99.90
52203;DHT22;38173;52.850;6.970;2023-05-07T09:07:44;15.00;99.90
52203;DHT22;38173;52.850;6.970;2023-05-07T09:10:11;15.10;99.90
52203;DHT22;38173;52.850;6.970;2023-05-07T09:12:37;15.30;99.90
52203;DHT22;38173;52.850;6.970;2023-05-07T09:15:03;15.60;99.90
52203;DHT22;38173;52.850;6.970;2023-05-07T09:17:29;16.00;99.90
52203;DHT22;38173;52.850;6.970;2023-05-07T09:19:55;16.40;99.90
52203;DHT22;38173;52.850;6.970;2023-05-07T09:22:20;16.60;99.90
52203;DHT22;38173;52.850;6.970;2023-05-07T09:24:50;16.80;99.90
52203;DHT22;38173;52.850;6.970;2023-05-07T09:27:16;16.90;99.90
52203;DHT22;38173;52.850;6.970;2023-05-07T09:29:43;17.00;99.90
52203;DHT22;38173;52.850;6.970;2023-05-07T09:32:08;17.10;99.90
52203;DHT22;38173;52.850;6.970;2023-05-07T09:34:34;17.40;99.90
52203;DHT22;38173;52.850;6.970;2023-05-07T09:37:04;17.50;99.90
52203;DHT22;38173;52.850;6.970;2023-05-07T09:39:46;17.60;99.90
52203;DHT22;38173;52.850;6.970;2023-05-07T09:42:12;17.60;99.90
52203;DHT22;38173;52.850;6.970;2023-05-07T09:44:40;17.50;99.90
52203;DHT22;38173;52.850;6.970;2023-05-07T09:47:06;17.60;99.90
52203;DHT22;38173;52.850;6.970;2023-05-07T09:49:35;17.60;99.90
52203;DHT22;38173;52.850;6.970;2023-05-07T09:52:02;17.50;99.90
52203;DHT22;38173;52.850;6.970;2023-05-07T09:54:28;17.50;99.90
52203;DHT22;38173;52.850;6.970;2023-05-07T09:56:56;17.50;99.90
52203;DHT22;38173;52.850;6.970;2023-05-07T09:59:22;17.40;99.90
52203;DHT22;38173;52.850;6.970;2023-05-07T10:01:47;17.30;99.90
52203;DHT22;38173;52.850;6.970;2023-05-07T10:04:14;17.20;99.90
52203;DHT22;38173;52.850;6.970;2023-05-07T10:06:40;17.10;99.90
52203;DHT22;38173;52.850;6.970;2023-05-07T10:09:06;17.10;99.90
52203;DHT22;38173;52.850;6.970;2023-05-07T10:11:32;17.20;99.90
52203;DHT22;38173;52.850;6.970;2023-05-07T10:13:59;17.10;99.90
52203;DHT22;38173;52.850;6.970;2023-05-07T10:16:27;17.10;99.90
52203;DHT22;38173;52.850;6.970;2023-05-07T10:18:55;17.20;99.90
52203;DHT22;38173;52.850;6.970;2023-05-07T10:21:21;17.30;99.90
52203;DHT22;38173;52.850;6.970;2023-05-07T10:23:49;17.60;99.90
52203;DHT22;38173;52.850;6.970;2023-05-07T10:26:15;17.80;99.90
52203;DHT22;38173;52.850;6.970;2023-05-07T10:28:48;17.80;99.90
52203;DHT22;38173;52.850;6.970;2023-05-07T10:33:49;18.00;99.90
52203;DHT22;38173;52.850;6.970;2023-05-07T10:36:16;18.00;99.90
52203;DHT22;38173;52.850;6.970;2023-05-07T10:38:42;18.10;99.90
52203;DHT22;38173;52.850;6.970;2023-05-07T10:41:08;18.20;99.90
52203;DHT22;38173;52.850;6.970;2023-05-07T10:43:43;18.40;99.90
52203;DHT22;38173;52.850;6.970;2023-05-07T10:46:10;18.70;99.90
52203;DHT22;38173;52.850;6.970;2023-05-07T10:51:21;19.10;99.90
52203;DHT22;38173;52.850;6.970;2023-05-07T10:53:47;19.30;99.90
52203;DHT22;38173;52.850;6.970;2023-05-07T10:58:44;19.70;99.90
52203;DHT22;38173;52.850;6.970;2023-05-07T11:01:13;19.90;99.90
52203;DHT22;38173;52.850;6.970;2023-05-07T11:04:12;19.90;99.90
52203;DHT22;38173;52.850;6.970;2023-05-07T11:06:25;19.80;99.90
52203;DHT22;38173;52.850;6.970;2023-05-07T11:11:18;19.70;99.90
52203;DHT22;38173;52.850;6.970;2023-05-07T11:13:45;19.80;99.90
52203;DHT22;38173;52.850;6.970;2023-05-07T11:16:21;19.90;99.90
52203;DHT22;38173;52.850;6.970;2023-05-07T11:18:48;20.00;99.90
52203;DHT22;38173;52.850;6.970;2023-05-07T11:21:34;20.20;99.90
52203;DHT22;38173;52.850;6.970;2023-05-07T11:24:00;20.20;99.90
52203;DHT22;38173;52.850;6.970;2023-05-07T11:26:27;20.20;99.90
52203;DHT22;38173;52.850;6.970;2023-05-07T11:28:53;20.10;99.90
52203;DHT22;38173;52.850;6.970;2023-05-07T11:31:23;20.10;99.90
52203;DHT22;38173;52.850;6.970;2023-05-07T11:33:49;20.10;99.90
52203;DHT22;38173;52.850;6.970;2023-05-07T11:36:15;20.10;99.90
52203;DHT22;38173;52.850;6.970;2023-05-07T11:38:41;20.10;99.90
52203;DHT22;38173;52.850;6.970;2023-05-07T11:41:06;20.00;99.90
52203;DHT22;38173;52.850;6.970;2023-05-07T11:43:32;19.90;99.90
52203;DHT22;38173;52.850;6.970;2023-05-07T11:46:08;20.00;99.90
52203;DHT22;38173;52.850;6.970;2023-05-07T11:48:34;20.00;99.90
52203;DHT22;38173;52.850;6.970;2023-05-07T11:51:01;20.10;99.90
52203;DHT22;38173;52.850;6.970;2023-05-07T11:53:27;20.10;99.90
52203;DHT22;38173;52.850;6.970;2023-05-07T11:55:56;20.10;99.90
52203;DHT22;38173;52.850;6.970;2023-05-07T11:58:23;20.30;99.90
52203;DHT22;38173;52.850;6.970;2023-05-07T12:00:52;20.50;99.90
52203;DHT22;38173;52.850;6.970;2023-05-07T12:03:18;20.50;99.70
52203;DHT22;38173;52.850;6.970;2023-05-07T12:05:45;20.60;99.90
52203;DHT22;38173;52.850;6.970;2023-05-07T12:08:16;20.60;99.90
52203;DHT22;38173;52.850;6.970;2023-05-07T12:10:42;20.70;99.90
52203;DHT22;38173;52.850;6.970;2023-05-07T12:13:15;20.50;99.00
52203;DHT22;38173;52.850;6.970;2023-05-07T12:15:41;20.60;99.90
52203;DHT22;38173;52.850;6.970;2023-05-07T12:18:07;20.70;99.60
52203;DHT22;38173;52.850;6.970;2023-05-07T12:20:34;20.90;99.90
52203;DHT22;38173;52.850;6.970;2023-05-07T12:22:59;20.90;99.90
52203;DHT22;38173;52.850;6.970;2023-05-07T12:25:26;21.00;99.90
52203;DHT22;38173;52.850;6.970;2023-05-07T12:27:52;21.00;98.30
52203;DHT22;38173;52.850;6.970;2023-05-07T12:30:18;20.90;98.70
52203;DHT22;38173;52.850;6.970;2023-05-07T12:32:44;20.90;99.10
52203;DHT22;38173;52.850;6.970;2023-05-07T12:35:10;21.00;98.30
52203;DHT22;38173;52.850;6.970;2023-05-07T12:37:36;21.00;97.00
52203;DHT22;38173;52.850;6.970;2023-05-07T12:40:05;21.10;98.60
52203;DHT22;38173;52.850;6.970;2023-05-07T12:42:38;21.10;99.90
52203;DHT22;38173;52.850;6.970;2023-05-07T12:47:35;21.20;99.30
52203;DHT22;38173;52.850;6.970;2023-05-07T12:50:02;21.20;97.10
52203;DHT22;38173;52.850;6.970;2023-05-07T12:52:28;21.40;97.00
52203;DHT22;38173;52.850;6.970;2023-05-07T12:54:53;21.60;99.90
52203;DHT22;38173;52.850;6.970;2023-05-07T12:57:19;21.60;98.70
52203;DHT22;38173;52.850;6.970;2023-05-07T12:59:45;21.50;94.60
52203;DHT22;38173;52.850;6.970;2023-05-07T13:02:12;21.60;95.80
52203;DHT22;38173;52.850;6.970;2023-05-07T13:04:37;21.70;96.40
52203;DHT22;38173;52.850;6.970;2023-05-07T13:07:03;21.60;99.20
52203;DHT22;38173;52.850;6.970;2023-05-07T13:09:29;21.50;96.70
52203;DHT22;38173;52.850;6.970;2023-05-07T13:11:56;21.60;97.70
52203;DHT22;38173;52.850;6.970;2023-05-07T13:14:22;21.70;93.70
52203;DHT22;38173;52.850;6.970;2023-05-07T13:16:47;21.60;92.90
52203;DHT22;38173;52.850;6.970;2023-05-07T13:19:13;21.30;95.60
52203;DHT22;38173;52.850;6.970;2023-05-07T13:21:39;21.00;96.50
52203;DHT22;38173;52.850;6.970;2023-05-07T13:24:04;20.80;96.60
52203;DHT22;38173;52.850;6.970;2023-05-07T13:26:31;20.50;98.00
52203;DHT22;38173;52.850;6.970;2023-05-07T13:28:56;20.30;99.90
52203;DHT22;38173;52.850;6.970;2023-05-07T13:31:22;20.10;99.90
52203;DHT22;38173;52.850;6.970;2023-05-07T13:33:48;20.00;99.90
52203;DHT22;38173;52.850;6.970;2023-05-07T13:36:14;19.80;97.90
52203;DHT22;38173;52.850;6.970;2023-05-07T13:38:39;19.70;99.90
52203;DHT22;38173;52.850;6.970;2023-05-07T13:41:05;19.60;99.50
52203;DHT22;38173;52.850;6.970;2023-05-07T13:43:31;19.60;99.90
52203;DHT22;38173;52.850;6.970;2023-05-07T13:45:59;19.40;99.90
52203;DHT22;38173;52.850;6.970;2023-05-07T13:48:24;19.40;99.90
52203;DHT22;38173;52.850;6.970;2023-05-07T13:50:50;19.30;99.90
52203;DHT22;38173;52.850;6.970;2023-05-07T13:53:16;19.40;99.90
52203;DHT22;38173;52.850;6.970;2023-05-07T13:55:44;19.40;99.90
52203;DHT22;38173;52.850;6.970;2023-05-07T13:58:09;19.50;99.90
52203;DHT22;38173;52.850;6.970;2023-05-07T14:00:35;19.50;99.90
52203;DHT22;38173;52.850;6.970;2023-05-07T14:03:01;19.50;99.90
52203;DHT22;38173;52.850;6.970;2023-05-07T14:05:26;19.50;99.90
52203;DHT22;38173;52.850;6.970;2023-05-07T14:07:56;19.70;99.90
52203;DHT22;38173;52.850;6.970;2023-05-07T14:10:22;20.00;99.90
52203;DHT22;38173;52.850;6.970;2023-05-07T14:12:47;20.50;99.90
52203;DHT22;38173;52.850;6.970;2023-05-07T14:15:13;21.10;99.70
52203;DHT22;38173;52.850;6.970;2023-05-07T14:17:42;21.50;97.70
52203;DHT22;38173;52.850;6.970;2023-05-07T14:20:08;21.50;98.60
52203;DHT22;38173;52.850;6.970;2023-05-07T14:22:34;21.20;97.40
52203;DHT22;38173;52.850;6.970;2023-05-07T14:24:59;21.00;98.30
52203;DHT22;38173;52.850;6.970;2023-05-07T14:27:25;20.70;99.00
52203;DHT22;38173;52.850;6.970;2023-05-07T14:29:51;20.70;99.60
52203;DHT22;38173;52.850;6.970;2023-05-07T14:32:17;20.90;99.90
52203;DHT22;38173;52.850;6.970;2023-05-07T14:34:43;20.70;99.90
52203;DHT22;38173;52.850;6.970;2023-05-07T14:37:09;20.40;98.50
52203;DHT22;38173;52.850;6.970;2023-05-07T14:39:35;20.00;99.90
52203;DHT22;38173;52.850;6.970;2023-05-07T14:42:01;19.80;99.90
52203;DHT22;38173;52.850;6.970;2023-05-07T14:44:26;19.60;99.90
52203;DHT22;38173;52.850;6.970;2023-05-07T14:46:52;19.20;99.90
52203;DHT22;38173;52.850;6.970;2023-05-07T14:49:18;19.00;99.90
52203;DHT22;38173;52.850;6.970;2023-05-07T14:51:44;18.90;99.90
52203;DHT22;38173;52.850;6.970;2023-05-07T14:54:17;18.70;99.90
52203;DHT22;38173;52.850;6.970;2023-05-07T14:56:43;18.50;99.90
52203;DHT22;38173;52.850;6.970;2023-05-07T14:59:09;18.40;99.90
52203;DHT22;38173;52.850;6.970;2023-05-07T15:01:35;18.30;99.90
52203;DHT22;38173;52.850;6.970;2023-05-07T15:04:05;18.10;99.90
52203;DHT22;38173;52.850;6.970;2023-05-07T15:06:31;18.00;99.90
52203;DHT22;38173;52.850;6.970;2023-05-07T15:08:57;18.00;99.90
52203;DHT22;38173;52.850;6.970;2023-05-07T15:11:23;17.80;99.90
52203;DHT22;38173;52.850;6.970;2023-05-07T15:13:49;17.80;99.90
52203;DHT22;38173;52.850;6.970;2023-05-07T15:16:15;17.60;99.90
52203;DHT22;38173;52.850;6.970;2023-05-07T15:18:40;17.60;99.90
52203;DHT22;38173;52.850;6.970;2023-05-07T15:21:06;17.40;99.90
52203;DHT22;38173;52.850;6.970;2023-05-07T15:23:32;17.40;99.90
52203;DHT22;38173;52.850;6.970;2023-05-07T15:25:57;17.30;99.90
52203;DHT22;38173;52.850;6.970;2023-05-07T15:28:23;17.30;99.90
52203;DHT22;38173;52.850;6.970;2023-05-07T15:30:49;17.20;99.90
52203;DHT22;38173;52.850;6.970;2023-05-07T15:33:15;17.30;99.90
52203;DHT22;38173;52.850;6.970;2023-05-07T15:35:41;17.30;99.90